createdAt,value
2019-05-16T00:00:01.701Z,86.71
2019-05-16T00:01:01.664Z,86.33
2019-05-16T00:02:01.598Z,86.05
2019-05-16T00:03:01.576Z,85.86
2019-05-16T00:04:01.381Z,85.86
2019-05-16T00:05:01.386Z,85.28
2019-05-16T00:06:01.217Z,85.86
2019-05-16T00:07:01.193Z,85.47
2019-05-16T00:08:01.065Z,86.05
2019-05-16T00:09:01.003Z,86.24
2019-05-16T00:10:00.904Z,86.90
2019-05-16T00:11:00.923Z,88.52
2019-05-16T00:12:00.747Z,88.04
2019-05-16T00:13:00.723Z,87.09
2019-05-16T00:14:00.587Z,86.99
2019-05-16T00:15:00.532Z,86.90
2019-05-16T00:16:00.429Z,86.52
2019-05-16T00:17:00.441Z,86.14
2019-05-16T00:18:00.266Z,86.05
2019-05-16T00:19:00.255Z,85.76
2019-05-16T00:20:00.112Z,86.33
2019-05-16T00:21:00.061Z,85.76
2019-05-16T00:21:59.952Z,86.24
2019-05-16T00:22:59.972Z,86.24
2019-05-16T00:23:59.793Z,86.43
2019-05-16T00:24:59.781Z,87.19
2019-05-16T00:25:59.630Z,87.19
2019-05-16T00:26:59.592Z,87.38
2019-05-16T00:27:59.474Z,87.09
2019-05-16T00:28:59.503Z,86.52
2019-05-16T00:29:59.312Z,85.95
2019-05-16T00:30:59.425Z,86.61
2019-05-16T00:31:59.156Z,86.33
2019-05-16T00:32:59.121Z,86.61
2019-05-16T00:33:58.994Z,86.61
2019-05-16T00:34:59.032Z,86.90
2019-05-16T00:36:05.182Z,86.61
2019-05-16T00:36:58.840Z,86.24
2019-05-16T00:37:59.132Z,85.57
2019-05-16T00:38:58.650Z,85.95
2019-05-16T00:39:58.928Z,86.05
2019-05-16T00:40:59.028Z,86.33
2019-05-16T00:41:58.515Z,86.43
2019-05-16T00:42:59.049Z,85.47
2019-05-16T00:43:58.200Z,85.47
2019-05-16T00:44:58.512Z,84.43
2019-05-16T00:45:58.907Z,84.91
2019-05-16T00:46:58.203Z,84.91
2019-05-16T00:47:58.456Z,84.24
2019-05-16T00:48:58.913Z,83.76
2019-05-16T00:49:58.203Z,84.43
2019-05-16T00:50:58.429Z,84.91
2019-05-16T00:51:58.477Z,84.43
2019-05-16T00:52:59.061Z,84.62
2019-05-16T00:53:58.847Z,84.43
2019-05-16T00:54:58.002Z,84.72
2019-05-16T00:55:58.476Z,84.72
2019-05-16T00:56:57.785Z,84.72
2019-05-16T00:57:58.374Z,85.57
2019-05-16T00:58:58.735Z,84.81
2019-05-16T00:59:59.022Z,84.91
2019-05-16T01:00:59.164Z,84.62
2019-05-16T01:01:58.783Z,83.86
2019-05-16T01:02:57.865Z,84.14
2019-05-16T01:03:58.606Z,84.24
2019-05-16T01:04:58.842Z,84.81
2019-05-16T01:05:58.242Z,83.86
2019-05-16T01:06:58.560Z,84.14
2019-05-16T01:07:58.355Z,83.67
2019-05-16T01:08:57.961Z,83.58
2019-05-16T01:09:58.167Z,83.48
2019-05-16T01:10:58.503Z,83.86
2019-05-16T01:11:57.892Z,83.67
2019-05-16T01:12:55.922Z,84.91
2019-05-16T01:13:57.747Z,85.47
2019-05-16T01:14:55.823Z,84.72
2019-05-16T01:15:57.778Z,84.43
2019-05-16T01:16:57.994Z,84.62
2019-05-16T01:17:55.499Z,84.52
2019-05-16T01:18:55.421Z,85.47
2019-05-16T01:19:57.717Z,85.47
2019-05-16T01:20:55.356Z,85.00
2019-05-16T01:21:55.173Z,84.62
2019-05-16T01:22:55.161Z,85.00
2019-05-16T01:23:55.014Z,85.86
2019-05-16T01:24:54.978Z,86.24
2019-05-16T01:25:54.857Z,85.86
2019-05-16T01:26:54.893Z,85.00
2019-05-16T01:27:54.698Z,84.91
2019-05-16T01:28:54.693Z,85.10
2019-05-16T01:29:54.536Z,85.38
2019-05-16T01:30:54.509Z,85.66
2019-05-16T01:31:54.381Z,85.95
2019-05-16T01:32:54.423Z,86.24
2019-05-16T01:33:54.219Z,86.14
2019-05-16T01:34:54.225Z,85.95
2019-05-16T01:35:54.067Z,85.95
2019-05-16T01:36:54.035Z,86.24
2019-05-16T01:37:53.899Z,86.14
2019-05-16T01:38:53.851Z,86.61
2019-05-16T01:39:53.753Z,85.57
2019-05-16T01:40:53.755Z,85.57
2019-05-16T01:41:53.581Z,85.86
2019-05-16T01:42:53.563Z,84.43
2019-05-16T01:43:53.425Z,84.62
2019-05-16T01:44:53.373Z,84.52
2019-05-16T01:45:53.258Z,85.38
2019-05-16T01:46:53.292Z,84.91
2019-05-16T01:47:53.104Z,84.43
2019-05-16T01:48:53.094Z,84.91
2019-05-16T01:49:52.945Z,84.91
2019-05-16T01:50:52.865Z,85.00
2019-05-16T01:51:52.790Z,84.39
2019-05-16T01:52:52.811Z,84.01
2019-05-16T01:53:52.623Z,84.20
2019-05-16T01:54:52.627Z,84.14
2019-05-16T01:55:52.467Z,84.24
2019-05-16T01:56:52.401Z,84.91
2019-05-16T01:57:52.312Z,85.47
2019-05-16T01:58:52.352Z,86.24
2019-05-16T01:59:52.151Z,85.66
2019-05-16T02:01:05.832Z,85.66
2019-05-16T02:01:51.994Z,85.47
2019-05-16T02:02:51.961Z,85.66
2019-05-16T02:03:51.833Z,85.28
2019-05-16T02:04:51.871Z,85.66
2019-05-16T02:05:51.671Z,87.09
2019-05-16T02:06:54.686Z,85.95
2019-05-16T02:07:51.516Z,86.14
2019-05-16T02:08:51.491Z,86.38
2019-05-16T02:09:51.349Z,85.81
2019-05-16T02:10:51.298Z,86.05
2019-05-16T02:11:51.195Z,84.52
2019-05-16T02:12:51.121Z,84.81
2019-05-16T02:13:51.030Z,84.05
2019-05-16T02:14:51.018Z,83.39
2019-05-16T02:15:50.872Z,83.58
2019-05-16T02:16:50.828Z,83.72
2019-05-16T02:17:50.718Z,83.72
2019-05-16T02:18:50.738Z,84.10
2019-05-16T02:19:50.566Z,85.05
2019-05-16T02:20:50.548Z,85.15
2019-05-16T02:21:50.610Z,84.58
2019-05-16T02:22:50.359Z,85.81
2019-05-16T02:23:51.698Z,85.91
2019-05-16T02:24:50.270Z,86.38
2019-05-16T02:25:50.076Z,86.38
2019-05-16T02:26:52.371Z,85.91
2019-05-16T02:27:49.918Z,86.38
2019-05-16T02:28:50.642Z,85.91
2019-05-16T02:29:50.691Z,86.19
2019-05-16T02:30:51.357Z,85.53
2019-05-16T02:31:51.372Z,85.43
2019-05-16T02:32:52.321Z,85.34
2019-05-16T02:33:51.034Z,85.91
2019-05-16T02:34:51.423Z,85.86
2019-05-16T02:35:54.708Z,85.72
2019-05-16T02:37:09.858Z,85.34
2019-05-16T02:37:54.669Z,85.62
2019-05-16T02:38:51.536Z,85.34
2019-05-16T02:39:51.575Z,85.15
2019-05-16T02:40:54.430Z,85.24
2019-05-16T02:41:51.805Z,84.95
2019-05-16T02:42:51.243Z,84.39
2019-05-16T02:43:50.821Z,84.77
2019-05-16T02:44:51.191Z,85.05
2019-05-16T02:45:51.681Z,84.86
2019-05-16T02:46:50.837Z,85.24
2019-05-16T02:47:51.151Z,85.62
2019-05-16T02:48:51.568Z,86.19
2019-05-16T02:49:50.515Z,86.00
2019-05-16T02:50:51.033Z,86.19
2019-05-16T02:51:50.944Z,86.29
2019-05-16T02:52:50.928Z,84.95
2019-05-16T02:53:50.762Z,85.34
2019-05-16T02:54:51.508Z,85.91
2019-05-16T02:55:47.689Z,86.29
2019-05-16T02:56:50.465Z,86.00
2019-05-16T02:57:47.525Z,86.19
2019-05-16T02:58:47.542Z,86.00
2019-05-16T02:59:50.698Z,85.62
2019-05-16T03:00:48.257Z,85.43
2019-05-16T03:01:47.217Z,85.43
2019-05-16T03:02:47.150Z,85.43
2019-05-16T03:03:47.056Z,85.43
2019-05-16T03:04:47.080Z,85.72
2019-05-16T03:05:46.886Z,85.34
2019-05-16T03:06:46.877Z,85.62
2019-05-16T03:07:47.551Z,85.24
2019-05-16T03:08:46.682Z,85.34
2019-05-16T03:09:46.586Z,85.24
2019-05-16T03:10:46.603Z,84.39
2019-05-16T03:11:46.408Z,84.67
2019-05-16T03:12:46.407Z,84.48
2019-05-16T03:13:46.250Z,84.77
2019-05-16T03:14:46.179Z,84.95
2019-05-16T03:15:46.086Z,84.95
2019-05-16T03:16:46.125Z,85.05
2019-05-16T03:17:45.929Z,84.58
2019-05-16T03:18:45.932Z,83.34
2019-05-16T03:19:45.769Z,83.72
2019-05-16T03:20:45.740Z,83.62
2019-05-16T03:21:45.610Z,83.62
2019-05-16T03:22:45.552Z,83.15
2019-05-16T03:23:45.450Z,83.72
2019-05-16T03:24:45.461Z,83.34
2019-05-16T03:25:45.303Z,83.72
2019-05-16T03:26:45.273Z,83.25
2019-05-16T03:27:45.139Z,83.44
2019-05-16T03:28:45.078Z,84.48
2019-05-16T03:29:44.982Z,84.95
2019-05-16T03:30:45.547Z,84.95
2019-05-16T03:31:45.599Z,84.77
2019-05-16T03:32:46.094Z,84.86
2019-05-16T03:33:56.399Z,86.19
2019-05-16T03:34:44.721Z,86.76
2019-05-16T03:35:45.249Z,86.00
2019-05-16T03:36:44.536Z,85.43
2019-05-16T03:37:55.144Z,85.53
2019-05-16T03:38:44.260Z,85.43
2019-05-16T03:39:44.233Z,85.24
2019-05-16T03:40:44.098Z,85.53
2019-05-16T03:41:44.044Z,86.00
2019-05-16T03:42:43.958Z,86.47
2019-05-16T03:43:43.960Z,85.62
2019-05-16T03:44:43.776Z,85.72
2019-05-16T03:45:43.763Z,86.29
2019-05-16T03:46:43.615Z,87.05
2019-05-16T03:47:43.598Z,86.86
2019-05-16T03:48:43.459Z,87.81
2019-05-16T03:49:43.486Z,87.28
2019-05-16T03:50:43.298Z,86.99
2019-05-16T03:51:43.296Z,86.90
2019-05-16T03:52:43.987Z,86.71
2019-05-16T03:53:43.104Z,86.24
2019-05-16T03:54:42.978Z,85.95
2019-05-16T03:55:43.026Z,85.81
2019-05-16T03:56:42.817Z,86.05
2019-05-16T03:57:42.822Z,86.43
2019-05-16T03:58:42.655Z,87.14
2019-05-16T03:59:42.633Z,87.09
2019-05-16T04:00:45.763Z,87.14
2019-05-16T04:01:42.445Z,87.09
2019-05-16T04:02:45.798Z,87.09
2019-05-16T04:03:42.363Z,87.38
2019-05-16T04:04:42.182Z,87.95
2019-05-16T04:05:42.115Z,88.33
2019-05-16T04:06:42.024Z,87.76
2019-05-16T04:07:42.042Z,87.85
2019-05-16T04:08:41.861Z,88.04
2019-05-16T04:09:41.881Z,88.90
2019-05-16T04:10:41.768Z,89.28
2019-05-16T04:11:42.691Z,89.37
2019-05-16T04:12:42.255Z,89.47
2019-05-16T04:13:41.722Z,90.14
2019-05-16T04:14:41.382Z,90.19
2019-05-16T04:15:41.422Z,90.00
2019-05-16T04:16:41.550Z,90.23
2019-05-16T04:17:41.583Z,90.23
2019-05-16T04:18:42.005Z,89.94
2019-05-16T04:19:41.510Z,89.66
2019-05-16T04:20:40.906Z,90.33
2019-05-16T04:21:42.065Z,89.90
2019-05-16T04:22:41.151Z,89.28
2019-05-16T04:23:41.982Z,89.66
2019-05-16T04:24:41.788Z,89.66
2019-05-16T04:25:41.149Z,89.00
2019-05-16T04:26:41.203Z,87.85
2019-05-16T04:27:41.728Z,86.99
2019-05-16T04:28:41.286Z,87.14
2019-05-16T04:29:40.908Z,86.71
2019-05-16T04:30:41.534Z,85.66
2019-05-16T04:31:41.293Z,84.91
2019-05-16T04:32:41.930Z,85.19
2019-05-16T04:33:41.654Z,85.10
2019-05-16T04:34:41.834Z,86.14
2019-05-16T04:35:41.153Z,86.05
2019-05-16T04:36:40.709Z,86.05
2019-05-16T04:37:42.190Z,86.61
2019-05-16T04:38:44.998Z,86.05
2019-05-16T04:39:41.426Z,85.10
2019-05-16T04:40:42.208Z,84.72
2019-05-16T04:41:40.919Z,84.24
2019-05-16T04:42:41.734Z,85.38
2019-05-16T04:43:41.681Z,85.76
2019-05-16T04:44:41.657Z,85.66
2019-05-16T04:45:41.471Z,85.38
2019-05-16T04:46:41.093Z,85.10
2019-05-16T04:47:41.326Z,84.72
2019-05-16T04:48:41.414Z,85.19
2019-05-16T04:49:41.180Z,85.76
2019-05-16T04:50:41.767Z,85.66
2019-05-16T04:51:41.402Z,84.81
2019-05-16T04:52:41.406Z,85.10
2019-05-16T04:53:42.084Z,84.52
2019-05-16T04:54:41.491Z,84.43
2019-05-16T04:55:38.125Z,84.14
2019-05-16T04:56:40.985Z,84.52
2019-05-16T04:57:41.771Z,84.81
2019-05-16T04:58:40.542Z,84.43
2019-05-16T04:59:37.826Z,83.95
2019-05-16T05:00:37.708Z,83.76
2019-05-16T05:01:37.637Z,83.48
2019-05-16T05:02:37.555Z,83.19
2019-05-16T05:03:40.667Z,82.81
2019-05-16T05:04:37.394Z,82.91
2019-05-16T05:05:37.327Z,82.53
2019-05-16T05:06:37.226Z,82.05
2019-05-16T05:07:40.429Z,81.77
2019-05-16T05:08:52.954Z,81.10
2019-05-16T05:09:36.995Z,81.38
2019-05-16T05:10:36.927Z,81.38
2019-05-16T05:11:37.017Z,81.38
2019-05-16T05:12:36.787Z,81.38
2019-05-16T05:13:36.674Z,81.10
2019-05-16T05:14:36.699Z,81.20
2019-05-16T05:15:36.513Z,81.29
2019-05-16T05:16:36.514Z,81.33
2019-05-16T05:17:36.355Z,81.58
2019-05-16T05:18:36.281Z,81.05
2019-05-16T05:19:36.199Z,80.76
2019-05-16T05:20:36.230Z,80.66
2019-05-16T05:21:36.039Z,81.24
2019-05-16T05:22:36.037Z,81.33
2019-05-16T05:23:35.875Z,81.24
2019-05-16T05:24:35.848Z,81.24
2019-05-16T05:25:35.718Z,81.90
2019-05-16T05:26:35.660Z,82.00
2019-05-16T05:27:35.556Z,83.04
2019-05-16T05:28:35.674Z,82.67
2019-05-16T05:29:35.399Z,81.96
2019-05-16T05:30:35.477Z,81.81
2019-05-16T05:31:35.751Z,81.90
2019-05-16T05:32:35.284Z,81.62
2019-05-16T05:33:35.084Z,81.96
2019-05-16T05:34:35.199Z,81.62
2019-05-16T05:35:34.922Z,81.90
2019-05-16T05:36:35.013Z,81.58
2019-05-16T05:37:34.759Z,81.33
2019-05-16T05:38:34.824Z,81.62
2019-05-16T05:39:34.598Z,80.76
2019-05-16T05:40:34.646Z,80.38
2019-05-16T05:41:34.442Z,80.29
2019-05-16T05:42:34.434Z,80.86
2019-05-16T05:43:34.337Z,81.05
2019-05-16T05:44:34.243Z,80.57
2019-05-16T05:45:34.131Z,80.00
2019-05-16T05:46:34.158Z,79.33
2019-05-16T05:47:33.964Z,78.77
2019-05-16T05:48:33.950Z,78.19
2019-05-16T05:49:33.807Z,78.10
2019-05-16T05:50:33.781Z,78.29
2019-05-16T05:51:33.648Z,78.10
2019-05-16T05:52:33.685Z,78.19
2019-05-16T05:53:33.500Z,78.96
2019-05-16T05:54:33.492Z,79.33
2019-05-16T05:55:33.333Z,78.86
2019-05-16T05:56:33.303Z,78.29
2019-05-16T05:57:33.177Z,78.00
2019-05-16T05:58:33.216Z,78.00
2019-05-16T05:59:33.013Z,77.72
2019-05-16T06:00:33.019Z,77.34
2019-05-16T06:01:32.858Z,77.53
2019-05-16T06:02:32.842Z,77.24
2019-05-16T06:03:33.243Z,77.81
2019-05-16T06:04:32.726Z,78.48
2019-05-16T06:05:32.535Z,77.91
2019-05-16T06:06:32.553Z,77.62
2019-05-16T06:07:32.376Z,76.57
2019-05-16T06:08:32.365Z,76.20
2019-05-16T06:09:33.254Z,76.42
2019-05-16T06:10:32.167Z,76.39
2019-05-16T06:11:32.055Z,75.95
2019-05-16T06:12:32.083Z,76.04
2019-05-16T06:13:31.897Z,76.14
2019-05-16T06:14:31.893Z,75.76
2019-05-16T06:15:31.736Z,75.38
2019-05-16T06:16:31.682Z,76.04
2019-05-16T06:17:31.584Z,76.04
2019-05-16T06:18:31.612Z,75.47
2019-05-16T06:19:31.419Z,74.99
2019-05-16T06:20:31.404Z,75.28
2019-05-16T06:21:33.570Z,75.47
2019-05-16T06:22:31.229Z,75.28
2019-05-16T06:23:31.331Z,74.43
2019-05-16T06:24:31.155Z,73.95
2019-05-16T06:25:31.683Z,75.19
2019-05-16T06:26:30.952Z,75.47
2019-05-16T06:27:30.790Z,75.67
2019-05-16T06:28:31.083Z,74.43
2019-05-16T06:29:31.110Z,74.71
2019-05-16T06:30:30.690Z,74.80
2019-05-16T06:31:31.285Z,74.24
2019-05-16T06:32:30.554Z,73.76
2019-05-16T06:33:30.624Z,73.57
2019-05-16T06:34:30.372Z,73.85
2019-05-16T06:35:30.149Z,74.04
2019-05-16T06:36:30.582Z,73.66
2019-05-16T06:37:30.945Z,73.00
2019-05-16T06:38:30.153Z,72.62
2019-05-16T06:39:41.183Z,72.62
2019-05-16T06:40:29.822Z,72.52
2019-05-16T06:41:30.445Z,73.28
2019-05-16T06:42:30.056Z,73.38
2019-05-16T06:43:30.197Z,73.47
2019-05-16T06:44:30.837Z,73.10
2019-05-16T06:45:29.359Z,73.47
2019-05-16T06:46:30.660Z,73.95
2019-05-16T06:47:30.552Z,74.52
2019-05-16T06:48:30.343Z,75.67
2019-05-16T06:49:30.367Z,75.47
2019-05-16T06:50:29.743Z,74.24
2019-05-16T06:51:30.579Z,73.28
2019-05-16T06:52:30.140Z,73.00
2019-05-16T06:53:29.896Z,73.66
2019-05-16T06:54:29.912Z,74.33
2019-05-16T06:55:29.636Z,74.65
2019-05-16T06:56:30.820Z,74.84
2019-05-16T06:57:30.205Z,74.52
2019-05-16T06:58:30.248Z,75.32
2019-05-16T06:59:29.787Z,74.94
2019-05-16T07:00:30.191Z,74.46
2019-05-16T07:01:29.736Z,74.18
2019-05-16T07:02:33.670Z,73.22
2019-05-16T07:03:30.635Z,72.27
2019-05-16T07:04:30.322Z,72.27
2019-05-16T07:05:29.854Z,72.75
2019-05-16T07:06:50.300Z,73.22
2019-05-16T07:07:27.630Z,73.74
2019-05-16T07:08:27.540Z,72.69
2019-05-16T07:09:27.529Z,71.73
2019-05-16T07:10:27.389Z,69.64
2019-05-16T07:11:27.345Z,68.88
2019-05-16T07:12:27.229Z,68.78
2019-05-16T07:13:27.280Z,68.88
2019-05-16T07:14:30.751Z,70.69
2019-05-16T07:15:27.091Z,70.50
2019-05-16T07:16:26.916Z,70.02
2019-05-16T07:17:26.864Z,69.45
2019-05-16T07:18:26.761Z,70.40
2019-05-16T07:19:26.778Z,70.69
2019-05-16T07:20:26.600Z,71.36
2019-05-16T07:21:26.622Z,70.21
2019-05-16T07:22:26.446Z,69.68
2019-05-16T07:23:26.432Z,68.24
2019-05-16T07:24:26.277Z,67.48
2019-05-16T07:25:26.344Z,67.86
2019-05-16T07:26:26.120Z,69.01
2019-05-16T07:27:26.155Z,68.34
2019-05-16T07:28:25.965Z,67.58
2019-05-16T07:29:25.932Z,67.77
2019-05-16T07:30:25.814Z,68.72
2019-05-16T07:31:25.872Z,68.72
2019-05-16T07:32:25.650Z,69.48
2019-05-16T07:33:25.682Z,68.44
2019-05-16T07:34:25.492Z,69.48
2019-05-16T07:35:25.489Z,68.44
2019-05-16T07:36:25.339Z,68.53
2019-05-16T07:37:25.401Z,68.44
2019-05-16T07:38:25.177Z,68.72
2019-05-16T07:39:25.210Z,68.05
2019-05-16T07:40:26.986Z,67.77
2019-05-16T07:41:25.020Z,68.72
2019-05-16T07:42:24.866Z,68.82
2019-05-16T07:43:24.889Z,68.44
2019-05-16T07:44:24.711Z,67.77
2019-05-16T07:45:24.736Z,67.48
2019-05-16T07:46:24.558Z,67.58
2019-05-16T07:47:24.549Z,68.53
2019-05-16T07:48:24.398Z,68.44
2019-05-16T07:49:24.458Z,68.82
2019-05-16T07:50:24.248Z,68.63
2019-05-16T07:51:24.265Z,67.90
2019-05-16T07:52:24.094Z,68.28
2019-05-16T07:53:24.078Z,68.76
2019-05-16T07:54:23.930Z,68.66
2019-05-16T07:55:23.987Z,68.95
2019-05-16T07:56:23.783Z,68.76
2019-05-16T07:57:23.796Z,69.65
2019-05-16T07:58:23.616Z,68.41
2019-05-16T07:59:23.566Z,68.03
2019-05-16T08:00:43.433Z,67.55
2019-05-16T08:01:23.379Z,67.07
2019-05-16T08:02:23.424Z,66.50
2019-05-16T08:03:23.223Z,65.74
2019-05-16T08:04:23.234Z,66.38
2019-05-16T08:05:23.068Z,67.61
2019-05-16T08:06:23.145Z,67.74
2019-05-16T08:07:22.915Z,68.32
2019-05-16T08:08:24.131Z,67.27
2019-05-16T08:09:22.756Z,66.98
2019-05-16T08:10:36.979Z,65.93
2019-05-16T08:11:23.594Z,65.36
2019-05-16T08:12:26.251Z,64.88
2019-05-16T08:13:22.451Z,65.20
2019-05-16T08:14:22.477Z,64.72
2019-05-16T08:15:22.292Z,64.91
2019-05-16T08:16:22.295Z,65.48
2019-05-16T08:17:22.138Z,63.86
2019-05-16T08:18:22.214Z,64.59
2019-05-16T08:19:25.159Z,64.21
2019-05-16T08:20:22.112Z,64.59
2019-05-16T08:21:21.823Z,65.83
2019-05-16T08:22:22.673Z,66.47
2019-05-16T08:23:22.736Z,65.80
2019-05-16T08:24:21.683Z,66.66
2019-05-16T08:25:21.512Z,66.85
2019-05-16T08:26:22.116Z,67.04
2019-05-16T08:27:21.363Z,66.85
2019-05-16T08:28:22.037Z,66.75
2019-05-16T08:29:22.020Z,67.99
2019-05-16T08:30:21.330Z,67.99
2019-05-16T08:32:22.950Z,68.47
2019-05-16T08:33:22.127Z,68.32
2019-05-16T08:34:20.986Z,67.07
2019-05-16T08:35:21.310Z,66.22
2019-05-16T08:36:21.214Z,66.22
2019-05-16T08:37:37.514Z,67.07
2019-05-16T08:38:21.803Z,67.68
2019-05-16T08:40:21.546Z,68.26
2019-05-16T08:42:20.966Z,66.06
2019-05-16T08:43:21.733Z,67.77
2019-05-16T08:44:21.486Z,67.87
2019-05-16T08:45:21.225Z,68.06
2019-05-16T08:46:20.729Z,66.63
2019-05-16T08:47:21.340Z,66.63
2019-05-16T08:48:22.940Z,67.30
2019-05-16T08:49:22.128Z,66.63
2019-05-16T08:50:11.075Z,67.68
2019-05-16T08:51:22.322Z,67.87
2019-05-16T08:52:22.447Z,67.77
2019-05-16T08:53:21.558Z,68.73
2019-05-16T08:54:21.328Z,68.82
2019-05-16T08:55:21.793Z,68.00
2019-05-16T08:56:22.297Z,68.67
2019-05-16T08:57:27.489Z,68.06
2019-05-16T08:58:22.408Z,68.10
2019-05-16T08:59:21.525Z,67.62
2019-05-16T09:00:21.789Z,66.28
2019-05-16T09:01:21.648Z,64.85
2019-05-16T09:02:22.112Z,65.14
2019-05-16T09:03:22.308Z,67.11
2019-05-16T09:04:23.892Z,68.82
2019-05-16T09:05:22.315Z,69.59
2019-05-16T09:06:22.585Z,68.54
2019-05-16T09:07:22.391Z,66.92
2019-05-16T09:08:18.350Z,65.39
2019-05-16T09:09:42.519Z,65.58
2019-05-16T09:10:21.439Z,67.97
2019-05-16T09:10:29.682Z,67.97
2019-05-16T09:10:41.347Z,67.80
2019-05-16T09:11:33.795Z,66.35
2019-05-16T09:12:17.983Z,66.63
2019-05-16T09:13:17.807Z,66.92
2019-05-16T09:14:17.877Z,67.68
2019-05-16T09:15:17.650Z,67.77
2019-05-16T09:16:18.411Z,67.40
2019-05-16T09:17:18.105Z,66.53
2019-05-16T09:18:17.998Z,66.19
2019-05-16T09:19:17.356Z,65.48
2019-05-16T09:20:17.726Z,66.44
2019-05-16T09:21:18.291Z,66.63
2019-05-16T09:22:18.043Z,68.06
2019-05-16T09:23:17.916Z,67.87
2019-05-16T09:24:17.982Z,67.58
2019-05-16T09:25:18.502Z,68.06
2019-05-16T09:26:19.690Z,68.92
2019-05-16T09:27:17.931Z,68.35
2019-05-16T09:28:16.972Z,67.87
2019-05-16T09:29:16.877Z,67.58
2019-05-16T09:30:17.259Z,67.21
2019-05-16T09:31:17.838Z,68.16
2019-05-16T09:32:20.481Z,67.58
2019-05-16T09:33:17.588Z,67.01
2019-05-16T09:34:17.460Z,67.30
2019-05-16T09:35:17.157Z,67.97
2019-05-16T09:36:17.474Z,67.30
2019-05-16T09:37:18.016Z,67.11
2019-05-16T09:38:20.632Z,67.11
2019-05-16T09:39:17.087Z,66.53
2019-05-16T09:40:17.220Z,66.15
2019-05-16T09:41:16.900Z,66.63
2019-05-16T09:42:17.140Z,66.35
2019-05-16T09:43:17.722Z,66.35
2019-05-16T09:44:18.319Z,67.30
2019-05-16T09:45:17.139Z,67.68
2019-05-16T09:46:17.216Z,68.26
2019-05-16T09:47:17.554Z,68.10
2019-05-16T09:48:18.437Z,67.33
2019-05-16T09:49:22.775Z,66.19
2019-05-16T09:50:17.241Z,66.76
2019-05-16T09:51:17.096Z,67.52
2019-05-16T09:52:16.555Z,68.00
2019-05-16T09:53:17.058Z,67.27
2019-05-16T09:54:16.773Z,66.60
2019-05-16T09:55:14.681Z,66.22
2019-05-16T09:56:16.850Z,65.55
2019-05-16T09:57:17.266Z,65.45
2019-05-16T09:58:14.336Z,64.98
2019-05-16T09:59:14.327Z,64.88
2019-05-16T10:00:14.180Z,64.98
2019-05-16T10:01:17.072Z,65.64
2019-05-16T10:02:14.029Z,65.36
2019-05-16T10:03:14.138Z,65.45
2019-05-16T10:04:13.879Z,65.84
2019-05-16T10:05:13.955Z,65.64
2019-05-16T10:06:13.724Z,65.93
2019-05-16T10:07:13.741Z,65.17
2019-05-16T10:08:13.566Z,64.98
2019-05-16T10:09:13.662Z,65.26
2019-05-16T10:10:13.409Z,65.93
2019-05-16T10:11:13.463Z,67.94
2019-05-16T10:12:15.632Z,66.60
2019-05-16T10:13:13.374Z,65.45
2019-05-16T10:14:13.105Z,64.22
2019-05-16T10:15:13.182Z,65.36
2019-05-16T10:16:12.953Z,66.70
2019-05-16T10:17:12.992Z,66.41
2019-05-16T10:18:12.810Z,65.64
2019-05-16T10:19:12.865Z,64.22
2019-05-16T10:20:12.644Z,63.73
2019-05-16T10:21:12.708Z,63.83
2019-05-16T10:22:12.497Z,64.18
2019-05-16T10:23:14.528Z,63.83
2019-05-16T10:24:12.337Z,64.37
2019-05-16T10:25:12.430Z,64.50
2019-05-16T10:26:12.184Z,66.31
2019-05-16T10:27:12.242Z,66.79
2019-05-16T10:28:12.030Z,66.70
2019-05-16T10:29:12.050Z,65.07
2019-05-16T10:30:11.879Z,64.78
2019-05-16T10:31:11.977Z,66.13
2019-05-16T10:32:11.720Z,66.50
2019-05-16T10:33:11.771Z,66.03
2019-05-16T10:34:11.566Z,65.74
2019-05-16T10:35:11.594Z,64.31
2019-05-16T10:36:11.417Z,64.69
2019-05-16T10:37:11.493Z,65.07
2019-05-16T10:38:11.267Z,66.00
2019-05-16T10:39:11.215Z,66.19
2019-05-16T10:40:11.109Z,66.09
2019-05-16T10:41:11.213Z,66.85
2019-05-16T10:42:23.564Z,66.66
2019-05-16T10:43:10.878Z,67.71
2019-05-16T10:44:10.922Z,67.14
2019-05-16T10:45:10.722Z,66.28
2019-05-16T10:46:10.834Z,67.43
2019-05-16T10:47:10.576Z,68.10
2019-05-16T10:48:10.646Z,67.62
2019-05-16T10:49:10.421Z,66.56
2019-05-16T10:50:10.356Z,66.47
2019-05-16T10:51:10.462Z,67.71
2019-05-16T10:52:10.194Z,68.38
2019-05-16T10:53:28.383Z,68.67
2019-05-16T10:54:14.041Z,68.96
2019-05-16T10:55:10.123Z,68.57
2019-05-16T10:56:10.013Z,68.57
2019-05-16T10:57:09.862Z,68.67
2019-05-16T10:58:09.898Z,68.67
2019-05-16T10:59:50.256Z,69.24
2019-05-16T11:00:18.258Z,69.15
2019-05-16T11:01:24.549Z,68.96
2019-05-16T11:02:09.559Z,68.29
2019-05-16T11:03:09.339Z,68.96
2019-05-16T11:04:09.421Z,69.72
2019-05-16T11:05:24.959Z,70.87
2019-05-16T11:06:24.402Z,70.39
2019-05-16T11:07:09.034Z,70.77
2019-05-16T11:08:09.210Z,69.91
2019-05-16T11:09:08.885Z,70.48
2019-05-16T11:10:08.962Z,69.82
2019-05-16T11:11:08.724Z,69.72
2019-05-16T11:12:08.761Z,70.29
2019-05-16T11:13:08.583Z,69.62
2019-05-16T11:14:09.324Z,70.01
2019-05-16T11:15:11.385Z,69.91
2019-05-16T11:16:09.529Z,69.43
2019-05-16T11:17:13.176Z,70.20
2019-05-16T11:18:08.301Z,69.34
2019-05-16T11:19:17.425Z,68.96
2019-05-16T11:20:08.076Z,68.86
2019-05-16T11:21:08.125Z,69.91
2019-05-16T11:22:07.882Z,70.39
2019-05-16T11:23:08.219Z,71.34
2019-05-16T11:24:12.635Z,71.34
2019-05-16T11:25:21.145Z,71.57
2019-05-16T11:26:07.571Z,72.11
2019-05-16T11:27:07.700Z,72.53
2019-05-16T11:28:07.553Z,72.33
2019-05-16T11:29:07.664Z,71.76
2019-05-16T11:30:07.625Z,72.24
2019-05-16T11:31:07.890Z,72.81
2019-05-16T11:32:07.166Z,73.58
2019-05-16T11:33:07.754Z,73.86
2019-05-16T11:34:06.963Z,73.48
2019-05-16T11:35:07.366Z,72.68
2019-05-16T11:36:07.668Z,71.44
2019-05-16T11:37:07.171Z,72.33
2019-05-16T11:38:07.334Z,72.43
2019-05-16T11:39:08.708Z,72.91
2019-05-16T11:40:06.803Z,73.73
2019-05-16T11:41:07.366Z,73.73
2019-05-16T11:42:08.079Z,73.83
2019-05-16T11:43:14.297Z,74.88
2019-05-16T11:44:06.807Z,74.98
2019-05-16T11:45:09.563Z,74.88
2019-05-16T11:46:06.046Z,73.92
2019-05-16T11:47:08.160Z,73.88
2019-05-16T11:48:05.883Z,73.54
2019-05-16T11:49:05.850Z,74.49
2019-05-16T11:50:07.383Z,74.17
2019-05-16T11:51:07.007Z,73.32
2019-05-16T11:52:07.227Z,73.50
2019-05-16T11:53:07.292Z,74.37
2019-05-16T11:54:06.928Z,75.03
2019-05-16T11:55:07.476Z,74.55
2019-05-16T11:56:08.029Z,74.65
2019-05-16T11:57:12.966Z,73.88
2019-05-16T11:58:06.812Z,74.08
2019-05-16T11:59:07.614Z,73.50
2019-05-16T12:00:04.992Z,73.79
2019-05-16T12:01:07.561Z,73.88
2019-05-16T12:02:04.811Z,75.03
2019-05-16T12:03:04.917Z,75.13
2019-05-16T12:04:04.653Z,77.80
2019-05-16T12:05:04.730Z,77.99
2019-05-16T12:06:05.618Z,78.37
2019-05-16T12:07:04.643Z,78.85
2019-05-16T12:08:07.323Z,79.23
2019-05-16T12:09:06.640Z,78.47
2019-05-16T12:10:04.191Z,79.23
2019-05-16T12:11:06.725Z,79.04
2019-05-16T12:12:04.678Z,78.37
2019-05-16T12:13:04.167Z,77.32
2019-05-16T12:14:03.883Z,77.03
2019-05-16T12:15:03.977Z,76.65
2019-05-16T12:16:03.740Z,76.56
2019-05-16T12:17:03.787Z,76.75
2019-05-16T12:18:05.207Z,77.32
2019-05-16T12:19:03.694Z,77.80
2019-05-16T12:20:03.423Z,77.70
2019-05-16T12:21:03.406Z,78.66
2019-05-16T12:22:03.276Z,79.80
2019-05-16T12:23:03.324Z,80.19
2019-05-16T12:24:03.116Z,79.71
2019-05-16T12:25:03.232Z,79.33
2019-05-16T12:26:02.959Z,78.85
2019-05-16T12:27:03.039Z,78.85
2019-05-16T12:28:02.806Z,79.80
2019-05-16T12:29:02.947Z,80.81
2019-05-16T12:30:02.704Z,80.81
2019-05-16T12:31:02.761Z,81.01
2019-05-16T12:32:03.203Z,81.20
2019-05-16T12:33:02.572Z,81.10
2019-05-16T12:34:02.345Z,81.58
2019-05-16T12:35:02.473Z,80.91
2019-05-16T12:36:02.190Z,80.66
2019-05-16T12:37:02.287Z,80.53
2019-05-16T12:38:02.058Z,82.63
2019-05-16T12:39:02.109Z,85.21
2019-05-16T12:40:02.034Z,85.01
2019-05-16T12:41:02.012Z,82.63
2019-05-16T12:42:01.724Z,82.43
2019-05-16T12:43:01.827Z,83.48
2019-05-16T12:44:01.588Z,84.06
2019-05-16T12:45:01.626Z,85.01
2019-05-16T12:46:01.421Z,85.49
2019-05-16T12:47:01.540Z,85.49
2019-05-16T12:48:01.261Z,85.87
2019-05-16T12:49:01.255Z,86.25
2019-05-16T12:50:01.107Z,85.68
2019-05-16T12:51:01.156Z,86.06
2019-05-16T12:52:00.953Z,87.16